Time;durP1;ratioP1;P1;durP2;ratioP2;P2;SDS_P1;SDS_P2;PMS_P1;PMS_P2;Temp;Humidity;BMP_temperature;BMP_pressure;BME280_temperature;BME280_humidity;BME280_pressure;Samples;Min_cycle;Max_cycle;Signal;HPM_P1;HPM_P2
2021/06/02 00:00:10;;;;;;;3.45;2.45;;;15.80;68.00;;;;;;4987689;28;20055;-57
2021/06/02 00:02:49;;;;;;;3.20;2.15;;;15.80;67.80;;;;;;4993177;28;20500;-57
2021/06/02 00:05:19;;;;;;;3.83;2.40;;;15.70;68.20;;;;;;4997031;28;20069;-56
2021/06/02 00:07:49;;;;;;;2.83;2.10;;;15.70;68.40;;;;;;4995027;28;20046;-58
2021/06/02 00:10:17;;;;;;;9.98;2.70;;;15.60;69.00;;;;;;4989805;28;20405;-56
2021/06/02 00:12:47;;;;;;;7.25;2.38;;;15.50;68.70;;;;;;4990372;28;20037;-55
2021/06/02 00:15:15;;;;;;;4.53;2.53;;;15.50;68.50;;;;;;4997754;28;20049;-59
2021/06/02 00:17:51;;;;;;;5.07;1.83;;;15.50;68.60;;;;;;4992009;28;20031;-58
2021/06/02 00:20:16;;;;;;;5.60;2.10;;;15.50;68.60;;;;;;4995366;28;20046;-60
2021/06/02 00:22:48;;;;;;;3.80;2.10;;;15.40;68.90;;;;;;4990595;28;20029;-57
2021/06/02 00:25:14;;;;;;;5.75;2.85;;;15.40;68.40;;;;;;5002660;28;20087;-56
2021/06/02 00:27:49;;;;;;;2.97;1.80;;;15.40;70.10;;;;;;4998808;28;20037;-61
2021/06/02 00:30:18;;;;;;;3.13;2.00;;;15.30;71.30;;;;;;5003472;28;20022;-59
2021/06/02 00:32:44;;;;;;;5.40;2.22;;;15.30;68.90;;;;;;4991178;28;20066;-58
2021/06/02 00:35:13;;;;;;;3.92;2.33;;;15.30;68.60;;;;;;5002929;28;20396;-57
2021/06/02 00:37:40;;;;;;;5.72;2.33;;;15.30;69.20;;;;;;4991752;28;20062;-58
2021/06/02 00:40:08;;;;;;;5.03;2.17;;;15.30;69.80;;;;;;4992303;28;20399;-62
2021/06/02 00:42:34;;;;;;;8.25;1.98;;;15.20;70.70;;;;;;4960138;28;20093;-53
2021/06/02 00:45:00;;;;;;;3.83;2.38;;;15.10;70.80;;;;;;4997662;28;20030;-54
2021/06/02 00:47:26;;;;;;;3.15;2.00;;;15.00;71.90;;;;;;4987877;28;20502;-53
2021/06/02 00:49:52;;;;;;;4.32;2.55;;;14.90;76.00;;;;;;4990968;28;20026;-55
2021/06/02 00:52:18;;;;;;;4.50;2.10;;;14.70;75.90;;;;;;4996843;28;20037;-54
2021/06/02 00:54:44;;;;;;;3.78;2.22;;;14.60;75.80;;;;;;4995362;28;20030;-57
2021/06/02 00:57:18;;;;;;;5.60;2.20;;;14.50;77.20;;;;;;4989799;28;20031;-56
2021/06/02 00:59:45;;;;;;;;;;;14.50;76.10;;;;;;4974369;28;20027;-57
2021/06/02 01:02:19;;;;;;;3.05;1.80;;;14.50;75.50;;;;;;4984182;28;19932;-57
2021/06/02 01:04:57;;;;;;;;;;;14.40;76.50;;;;;;4986122;28;20716;-58
2021/06/02 01:07:36;;;;;;;5.72;2.20;;;14.40;77.60;;;;;;4986720;28;20403;-60
2021/06/02 01:10:07;;;;;;;3.40;2.20;;;14.40;75.50;;;;;;4988633;28;20022;-55
2021/06/02 01:12:33;;;;;;;10.70;2.30;;;14.50;74.60;;;;;;4990624;28;20030;-59
2021/06/02 01:14:59;;;;;;;4.45;2.20;;;14.60;75.00;;;;;;4992734;28;20084;-57
2021/06/02 01:17:30;;;;;;;6.18;2.22;;;14.60;74.70;;;;;;4989251;28;20943;-57
2021/06/02 01:20:06;;;;;;;3.53;2.00;;;14.60;74.30;;;;;;4989371;28;20106;-58
2021/06/02 01:22:39;;;;;;;2.78;2.20;;;14.70;74.40;;;;;;4987437;28;20053;-57
2021/06/02 01:25:16;;;;;;;4.53;2.65;;;14.70;74.30;;;;;;4989501;28;20083;-56
2021/06/02 01:27:42;;;;;;;3.50;1.95;;;14.60;75.60;;;;;;4993056;28;20034;-58
2021/06/02 01:30:13;;;;;;;7.05;2.65;;;14.60;75.00;;;;;;4991782;28;20559;-58
2021/06/02 01:32:54;;;;;;;5.65;2.20;;;14.70;74.80;;;;;;4987519;28;20754;-59
2021/06/02 01:35:50;;;;;;;4.70;2.42;;;14.70;74.40;;;;;;4990662;28;20073;-58
2021/06/02 01:38:27;;;;;;;7.28;2.42;;;14.70;75.40;;;;;;4986398;28;20027;-61
2021/06/02 01:41:31;;;;;;;7.75;2.38;;;14.70;74.70;;;;;;4984877;28;20384;-56
2021/06/02 01:44:44;;;;;;;5.28;2.58;;;14.60;79.50;;;;;;4954618;28;20026;-57
2021/06/02 01:47:43;;;;;;;4.43;2.13;;;14.50;76.60;;;;;;4982588;28;20071;-63
2021/06/02 01:50:24;;;;;;;7.47;2.45;;;14.50;77.10;;;;;;4996694;28;20750;-57
2021/06/02 01:53:24;;;;;;;8.07;2.50;;;14.40;76.60;;;;;;4995475;28;20065;-57
2021/06/02 01:55:58;;;;;;;4.32;2.75;;;14.40;77.50;;;;;;4987460;28;20022;-57
2021/06/02 01:58:51;;;;;;;3.60;2.40;;;14.30;77.30;;;;;;4989200;28;20026;-57
2021/06/02 02:01:54;;;;;;;5.63;2.40;;;14.30;77.30;;;;;;4971388;28;20128;-57
2021/06/02 02:04:56;;;;;;;6.47;2.28;;;14.40;77.90;;;;;;4995077;28;20041;-59
2021/06/02 02:07:30;;;;;;;4.75;2.85;;;14.40;76.50;;;;;;4995418;28;20073;-58
2021/06/02 02:10:23;;;;;;;4.68;2.40;;;14.50;76.30;;;;;;4999914;28;20022;-60
2021/06/02 02:13:19;;;;;;;3.63;2.10;;;14.60;76.40;;;;;;4986164;28;20041;-59
2021/06/02 02:15:59;;;;;;;4.80;2.50;;;14.50;76.90;;;;;;4996584;28;20041;-56
2021/06/02 02:19:13;;;;;;;5.82;2.30;;;14.60;76.10;;;;;;4983458;28;20026;-58
2021/06/02 02:22:02;;;;;;;4.97;2.42;;;14.60;76.10;;;;;;4986273;28;20112;-58
2021/06/02 02:24:49;;;;;;;5.40;2.42;;;14.60;76.20;;;;;;4988929;28;20027;-58
2021/06/02 02:27:41;;;;;;;5.25;2.15;;;14.60;77.20;;;;;;4995343;28;20404;-58
2021/06/02 02:30:18;;;;;;;6.18;2.40;;;14.50;77.50;;;;;;4994660;28;20029;-57
2021/06/02 02:33:09;;;;;;;4.32;2.38;;;14.40;77.90;;;;;;4981805;28;20023;-60
2021/06/02 02:36:00;;;;;;;8.13;3.05;;;14.30;78.80;;;;;;4984569;28;20056;-58
2021/06/02 02:38:49;;;;;;;8.00;2.40;;;14.30;79.20;;;;;;4995019;28;20030;-58
2021/06/02 02:41:52;;;;;;;8.20;2.30;;;14.20;80.60;;;;;;4999786;28;20042;-57
2021/06/02 02:44:39;;;;;;;12.15;2.90;;;14.10;80.90;;;;;;5011499;28;20081;-59
2021/06/02 02:47:33;;;;;;;4.40;2.30;;;14.10;80.20;;;;;;5001058;28;20464;-59
2021/06/02 02:50:42;;;;;;;5.55;2.70;;;14.10;79.90;;;;;;4987911;28;20034;-58
2021/06/02 02:53:19;;;;;;;19.35;3.17;;;14.20;80.00;;;;;;4992407;28;20150;-56
2021/06/02 02:55:48;;;;;;;6.50;2.35;;;14.20;80.00;;;;;;5002424;28;20046;-57
2021/06/02 02:58:26;;;;;;;4.82;2.63;;;14.20;80.10;;;;;;4994752;28;20033;-57
2021/06/02 03:01:02;;;;;;;5.07;2.90;;;14.10;81.20;;;;;;5003832;28;20101;-57
2021/06/02 03:03:53;;;;;;;5.13;2.42;;;14.00;82.30;;;;;;4994144;28;20022;-56
2021/06/02 03:06:32;;;;;;;3.45;2.30;;;13.90;83.90;;;;;;4986155;28;20487;-57
2021/06/02 03:09:15;;;;;;;8.85;2.78;;;13.80;84.50;;;;;;4991317;28;20049;-59
2021/06/02 03:11:44;;;;;;;3.88;2.42;;;13.80;85.40;;;;;;4988596;28;20065;-56
2021/06/02 03:14:35;;;;;;;4.20;2.17;;;13.70;86.00;;;;;;4997831;28;20021;-59
2021/06/02 03:17:38;;;;;;;7.43;2.58;;;13.60;88.30;;;;;;4992919;28;20026;-58
2021/06/02 03:20:22;;;;;;;4.30;2.70;;;13.50;88.80;;;;;;4995566;28;20030;-60
2021/06/02 03:23:38;;;;;;;7.47;4.05;;;13.50;88.70;;;;;;4987454;28;20177;-60
2021/06/02 03:26:12;;;;;;;3.90;2.75;;;13.50;89.40;;;;;;4992919;28;20029;-58
2021/06/02 03:28:59;;;;;;;5.53;2.85;;;13.50;89.90;;;;;;4987102;28;20114;-58
2021/06/02 03:32:02;;;;;;;4.35;2.60;;;13.50;90.00;;;;;;4997480;28;20034;-58
2021/06/02 03:34:50;;;;;;;5.22;3.00;;;13.40;91.80;;;;;;4981657;28;20100;-57
2021/06/02 03:37:21;;;;;;;7.20;2.47;;;13.40;93.40;;;;;;4995856;28;20023;-57
2021/06/02 03:40:01;;;;;;;6.70;2.55;;;13.30;94.20;;;;;;4989567;28;20030;-58
2021/06/02 03:42:54;;;;;;;5.22;2.63;;;13.30;93.10;;;;;;4991094;28;20495;-59
2021/06/02 03:45:32;;;;;;;7.00;3.15;;;13.20;93.80;;;;;;5002028;28;20564;-56
2021/06/02 03:48:19;;;;;;;5.97;2.60;;;13.10;94.50;;;;;;4990711;28;20026;-59
2021/06/02 03:51:02;;;;;;;9.40;3.08;;;13.10;94.20;;;;;;5004041;28;20453;-58
2021/06/02 03:53:53;;;;;;;5.28;3.45;;;13.10;94.10;;;;;;4987265;28;20022;-58
2021/06/02 03:56:50;;;;;;;6.47;2.90;;;13.20;94.30;;;;;;4987829;28;20030;-58
2021/06/02 03:59:29;;;;;;;6.07;2.78;;;13.20;94.60;;;;;;5008664;28;20070;-59
2021/06/02 04:02:04;;;;;;;4.63;2.97;;;13.20;94.40;;;;;;4999318;28;20041;-57
2021/06/02 04:04:57;;;;;;;8.15;4.22;;;13.20;94.50;;;;;;5000460;28;20045;-60
2021/06/02 04:07:38;;;;;;;5.57;2.88;;;13.20;97.70;;;;;;4991540;28;20046;-58
2021/06/02 04:10:18;;;;;;;6.97;3.00;;;13.20;97.70;;;;;;4986297;28;20576;-59
2021/06/02 04:13:22;;;;;;;7.65;3.22;;;13.20;95.90;;;;;;4988126;28;20081;-58
2021/06/02 04:15:58;;;;;;;12.80;3.87;;;13.30;98.20;;;;;;4990001;28;20105;-59
2021/06/02 04:18:26;;;;;;;8.18;2.75;;;13.20;98.80;;;;;;4991167;28;20809;-56
2021/06/02 04:20:53;;;;;;;3.38;2.63;;;13.30;96.50;;;;;;4998759;28;20026;-59
2021/06/02 04:23:21;;;;;;;7.03;2.30;;;13.50;95.60;;;;;;4996433;28;20050;-59
2021/06/02 04:25:48;;;;;;;5.15;2.38;;;13.80;95.00;;;;;;4997779;28;20061;-59
2021/06/02 04:28:16;;;;;;;5.63;2.90;;;14.20;95.40;;;;;;4996655;28;20029;-59
2021/06/02 04:30:51;;;;;;;8.02;2.40;;;14.70;93.30;;;;;;5000153;28;20026;-58
2021/06/02 04:33:23;;;;;;;4.70;2.40;;;15.60;90.80;;;;;;4978666;28;20033;-58
2021/06/02 04:35:51;;;;;;;8.95;2.72;;;16.80;87.00;;;;;;5001182;28;20034;-58
2021/06/02 04:38:24;;;;;;;6.85;2.83;;;18.30;82.90;;;;;;4991915;28;20034;-59
2021/06/02 04:40:59;;;;;;;4.70;3.03;;;19.80;77.80;;;;;;4990924;28;20056;-58
2021/06/02 04:43:25;;;;;;;4.03;3.17;;;21.00;69.70;;;;;;4989121;28;20507;-57
2021/06/02 04:45:59;;;;;;;6.82;2.80;;;22.30;63.10;;;;;;5000540;28;20100;-58
2021/06/02 04:48:29;;;;;;;6.97;2.78;;;23.20;59.00;;;;;;4990684;28;20041;-59
2021/06/02 04:51:29;;;;;;;4.18;2.20;;;23.90;57.20;;;;;;4994392;28;20034;-60
2021/06/02 04:54:22;;;;;;;6.82;2.70;;;24.50;55.80;;;;;;4990762;28;20034;-59
2021/06/02 04:56:56;;;;;;;4.45;2.42;;;24.70;54.60;;;;;;4988251;28;20023;-57
2021/06/02 04:59:44;;;;;;;3.78;1.90;;;25.20;53.60;;;;;;4990159;28;20030;-58
2021/06/02 05:02:22;;;;;;;5.85;2.70;;;25.90;50.90;;;;;;4985061;28;20080;-60
2021/06/02 05:05:19;;;;;;;9.52;2.50;;;25.70;50.90;;;;;;4994382;28;20488;-60
2021/06/02 05:08:00;;;;;;;3.45;2.42;;;25.30;51.60;;;;;;4994720;28;20046;-56
2021/06/02 05:10:59;;;;;;;3.05;2.00;;;26.30;50.00;;;;;;4985672;28;20040;-58
2021/06/02 05:14:00;;;;;;;4.65;2.10;;;26.50;49.40;;;;;;4995518;28;20018;-59
2021/06/02 05:17:15;;;;;;;5.45;2.25;;;27.90;46.80;;;;;;4995832;28;20018;-56
2021/06/02 05:23:37;;;;;;;6.13;2.40;;;27.90;45.50;;;;;;4930415;29;20066;-60
2021/06/02 05:26:34;;;;;;;4.95;2.55;;;27.70;46.00;;;;;;4992445;28;20569;-58
2021/06/02 05:29:40;;;;;;;6.80;2.75;;;28.20;45.30;;;;;;5000594;28;20026;-58
2021/06/02 05:32:27;;;;;;;3.20;1.98;;;28.70;44.50;;;;;;4994468;28;20448;-58
2021/06/02 05:34:56;;;;;;;8.20;2.70;;;29.00;44.50;;;;;;4975469;28;20056;-58
2021/06/02 05:37:46;;;;;;;4.68;2.42;;;28.70;44.10;;;;;;5000001;28;20030;-59
2021/06/02 05:40:40;;;;;;;3.05;2.08;;;28.60;43.40;;;;;;4984042;28;20607;-58
2021/06/02 05:43:47;;;;;;;16.48;3.45;;;30.10;42.80;;;;;;4994636;28;20021;-58
2021/06/02 05:46:38;;;;;;;2.83;2.13;;;30.40;42.10;;;;;;4995696;28;20859;-59
2021/06/02 05:49:22;;;;;;;4.65;2.30;;;31.10;41.50;;;;;;4992218;28;20053;-59
2021/06/02 05:52:00;;;;;;;10.55;2.60;;;30.90;42.20;;;;;;4997287;28;20484;-58
2021/06/02 05:54:46;;;;;;;6.10;2.42;;;31.70;41.00;;;;;;4983957;28;20648;-59
2021/06/02 05:57:53;;;;;;;7.40;2.25;;;30.70;41.20;;;;;;4985554;28;20034;-62
2021/06/02 06:00:28;;;;;;;3.75;2.22;;;30.50;42.30;;;;;;4990437;28;20069;-59
2021/06/02 06:03:07;;;;;;;7.57;2.90;;;31.90;41.80;;;;;;4990654;28;20121;-58
2021/06/02 06:06:10;;;;;;;3.50;2.60;;;32.90;40.20;;;;;;4992017;28;20034;-59
2021/06/02 06:09:13;;;;;;;6.20;3.00;;;32.20;41.10;;;;;;4988914;28;20519;-58
2021/06/02 06:12:07;;;;;;;10.45;2.88;;;31.60;42.00;;;;;;4992618;28;20041;-60
2021/06/02 06:14:51;;;;;;;4.30;2.60;;;31.80;40.70;;;;;;5005536;28;20046;-57
2021/06/02 06:17:57;;;;;;;3.72;2.72;;;31.90;41.30;;;;;;4988154;28;20031;-58
2021/06/02 06:20:41;;;;;;;3.83;2.55;;;32.50;40.30;;;;;;4996574;28;20041;-57
2021/06/02 06:23:30;;;;;;;10.75;2.50;;;32.20;40.20;;;;;;4987308;28;20563;-59
2021/06/02 06:26:29;;;;;;;4.03;2.40;;;32.00;41.30;;;;;;5001999;28;20034;-59
2021/06/02 06:29:22;;;;;;;5.32;2.42;;;33.00;38.90;;;;;;5004084;28;20027;-57
2021/06/02 06:31:51;;;;;;;2.38;2.17;;;33.30;38.60;;;;;;4991380;28;20045;-60
2021/06/02 06:34:20;;;;;;;4.53;2.50;;;32.70;38.50;;;;;;4989299;28;20079;-58
2021/06/02 06:36:50;;;;;;;2.80;2.38;;;33.10;39.30;;;;;;5003518;28;20030;-59
2021/06/02 06:39:40;;;;;;;3.50;2.67;;;33.30;38.30;;;;;;5000430;28;20071;-58
2021/06/02 06:42:07;;;;;;;4.50;2.75;;;33.50;38.70;;;;;;5003188;28;20046;-60
2021/06/02 06:44:38;;;;;;;4.70;2.10;;;34.10;37.60;;;;;;5001934;28;20633;-60
2021/06/02 06:47:08;;;;;;;4.32;2.20;;;33.20;39.00;;;;;;4995481;28;20045;-60
2021/06/02 06:49:35;;;;;;;5.25;2.53;;;34.00;37.20;;;;;;4995806;28;20026;-60
2021/06/02 06:52:02;;;;;;;3.28;2.47;;;33.60;37.10;;;;;;5000316;28;20027;-60
2021/06/02 06:54:33;;;;;;;2.90;2.20;;;34.50;37.30;;;;;;4999872;28;20036;-60
2021/06/02 06:57:02;;;;;;;6.10;2.65;;;35.10;36.90;;;;;;4989180;28;20030;-59
2021/06/02 06:59:31;;;;;;;4.50;2.13;;;35.60;35.40;;;;;;4999370;28;20022;-59
2021/06/02 07:01:57;;;;;;;2.85;2.05;;;35.50;35.60;;;;;;4999492;28;20031;-57
2021/06/02 07:04:31;;;;;;;6.93;2.33;;;35.40;35.40;;;;;;4999530;28;20033;-57
2021/06/02 07:07:10;;;;;;;4.53;2.42;;;35.50;36.40;;;;;;4997706;28;20026;-58
2021/06/02 07:09:39;;;;;;;3.22;2.10;;;34.70;35.30;;;;;;4991634;28;20496;-58
2021/06/02 07:12:16;;;;;;;7.78;2.97;;;34.80;36.90;;;;;;4990545;28;20030;-59
2021/06/02 07:14:54;;;;;;;4.80;2.80;;;34.30;36.30;;;;;;4993057;28;20038;-60
2021/06/02 07:17:29;;;;;;;5.60;2.67;;;34.20;36.60;;;;;;4987206;28;20038;-58
2021/06/02 07:20:01;;;;;;;3.63;2.20;;;34.20;36.70;;;;;;5000972;28;20069;-59
2021/06/02 07:22:27;;;;;;;4.25;2.42;;;34.20;36.70;;;;;;4995989;28;20034;-59
2021/06/02 07:24:57;;;;;;;4.50;2.35;;;34.10;36.80;;;;;;4998207;28;20041;-60
2021/06/02 07:27:30;;;;;;;3.90;2.10;;;34.30;37.10;;;;;;4997773;28;20109;-58
2021/06/02 07:30:00;;;;;;;4.53;2.22;;;34.30;36.80;;;;;;4999870;28;20026;-60
2021/06/02 07:32:29;;;;;;;3.78;2.10;;;35.30;35.70;;;;;;4998517;28;20114;-59
2021/06/02 07:34:58;;;;;;;6.90;2.10;;;35.10;34.60;;;;;;4967966;28;20069;-59
2021/06/02 07:37:27;;;;;;;7.22;2.60;;;35.50;36.00;;;;;;4991384;28;20042;-60
2021/06/02 07:39:53;;;;;;;3.97;2.28;;;34.90;36.00;;;;;;4996080;28;20037;-58
2021/06/02 07:42:18;;;;;;;4.72;2.40;;;35.20;37.60;;;;;;4974937;28;20037;-60
2021/06/02 07:44:44;;;;;;;3.63;2.20;;;35.10;36.80;;;;;;4993347;28;20030;-59
2021/06/02 07:47:15;;;;;;;4.13;2.50;;;34.90;36.00;;;;;;4980866;28;20038;-58
2021/06/02 07:49:44;;;;;;;3.22;2.47;;;35.10;35.80;;;;;;4986034;28;20474;-58
2021/06/02 07:52:10;;;;;;;2.92;2.20;;;36.30;34.60;;;;;;4990182;28;20041;-59
2021/06/02 07:54:38;;;;;;;4.60;2.45;;;35.80;34.70;;;;;;4989930;28;20563;-61
2021/06/02 07:57:06;;;;;;;5.60;2.28;;;34.70;35.40;;;;;;4989681;28;20061;-59
2021/06/02 07:59:41;;;;;;;6.88;2.05;;;35.20;35.90;;;;;;4988756;28;20026;-59
2021/06/02 08:02:12;;;;;;;2.65;1.90;;;36.80;35.40;;;;;;4987558;28;20033;-60
2021/06/02 08:04:47;;;;;;;10.05;2.40;;;36.90;35.10;;;;;;4999250;28;20022;-60
2021/06/02 08:07:13;;;;;;;5.43;2.30;;;36.60;35.00;;;;;;4995341;28;20034;-60
2021/06/02 08:09:39;;;;;;;5.88;2.05;;;37.00;34.40;;;;;;4993209;28;20018;-58
2021/06/02 08:12:06;;;;;;;2.95;2.25;;;36.30;34.10;;;;;;4990354;28;20022;-58
2021/06/02 08:14:40;;;;;;;5.93;1.92;;;36.00;35.10;;;;;;5001273;28;20029;-60
2021/06/02 08:17:15;;;;;;;7.88;2.22;;;36.00;35.00;;;;;;4990918;28;20030;-62
2021/06/02 08:19:46;;;;;;;3.40;2.05;;;36.30;34.10;;;;;;4988024;28;20039;-58
2021/06/02 08:22:24;;;;;;;2.78;2.10;;;35.80;33.80;;;;;;4986932;28;20054;-60
2021/06/02 08:24:52;;;;;;;5.00;1.90;;;35.90;36.90;;;;;;4985233;28;20045;-60
2021/06/02 08:27:18;;;;;;;3.50;2.03;;;35.50;34.50;;;;;;4977239;28;20510;-59
2021/06/02 08:29:47;;;;;;;2.70;1.95;;;36.10;36.40;;;;;;4988029;28;20019;-60
2021/06/02 08:32:19;;;;;;;11.85;2.40;;;36.60;33.20;;;;;;4986113;28;20037;-59
2021/06/02 08:34:54;;;;;;;2.20;2.00;;;36.00;34.30;;;;;;4970823;28;20050;-57
2021/06/02 08:37:22;;;;;;;4.95;1.95;;;35.70;34.00;;;;;;4987664;28;20829;-58
2021/06/02 08:39:53;;;;;;;7.22;2.00;;;36.10;34.50;;;;;;4995425;28;20033;-61
2021/06/02 08:42:24;;;;;;;3.58;2.47;;;37.20;34.50;;;;;;4993097;28;20038;-59
2021/06/02 08:44:52;;;;;;;6.00;2.03;;;36.70;34.00;;;;;;4997276;28;20109;-59
2021/06/02 08:47:19;;;;;;;2.63;1.80;;;36.60;34.60;;;;;;4991429;28;20040;-59
2021/06/02 08:49:50;;;;;;;3.17;1.75;;;36.40;34.30;;;;;;4998811;28;20048;-59
2021/06/02 08:52:22;;;;;;;3.05;1.73;;;36.90;33.40;;;;;;4995477;28;20026;-58
2021/06/02 08:54:51;;;;;;;6.50;1.90;;;38.20;32.00;;;;;;4990963;28;20037;-58
2021/06/02 08:57:20;;;;;;;2.88;1.85;;;36.80;32.00;;;;;;4989104;28;20026;-59
2021/06/02 08:59:46;;;;;;;4.97;1.58;;;36.00;33.10;;;;;;4997302;28;20084;-59
2021/06/02 09:02:11;;;;;;;3.58;2.00;;;35.50;32.40;;;;;;4995540;28;20023;-61
2021/06/02 09:04:37;;;;;;;6.28;1.63;;;35.10;32.20;;;;;;4989077;28;20038;-60
2021/06/02 09:07:05;;;;;;;4.25;1.52;;;35.00;32.30;;;;;;4988387;28;20030;-61
2021/06/02 09:09:32;;;;;;;1.63;1.33;;;36.10;33.80;;;;;;4980764;28;20041;-61
2021/06/02 09:12:12;;;;;;;3.00;2.08;;;36.30;33.30;;;;;;4994856;28;20555;-60
2021/06/02 09:14:52;;;;;;;7.68;1.75;;;36.60;32.70;;;;;;4997016;28;20384;-59
2021/06/02 09:17:21;;;;;;;2.67;1.65;;;36.60;30.80;;;;;;4993054;28;20026;-58
2021/06/02 09:19:48;;;;;;;4.82;1.70;;;35.40;32.00;;;;;;4992181;28;20122;-60
2021/06/02 09:22:26;;;;;;;3.10;1.50;;;35.30;32.10;;;;;;4996326;28;20037;-59
2021/06/02 09:25:09;;;;;;;3.05;1.40;;;34.90;32.00;;;;;;5002693;28;20061;-59
2021/06/02 09:27:57;;;;;;;2.50;1.60;;;35.00;32.20;;;;;;4986940;28;20125;-61
2021/06/02 09:30:31;;;;;;;2.92;1.50;;;34.90;33.30;;;;;;5000918;28;20018;-60
2021/06/02 09:33:03;;;;;;;2.80;1.70;;;35.50;32.50;;;;;;4994566;28;20042;-60
2021/06/02 09:35:43;;;;;;;2.88;1.90;;;35.40;34.10;;;;;;4980937;28;20042;-58
2021/06/02 09:38:23;;;;;;;5.00;1.85;;;35.20;34.50;;;;;;4989929;28;20053;-58
2021/06/02 09:40:57;;;;;;;7.78;2.22;;;34.90;34.20;;;;;;4998749;28;20042;-58
2021/06/02 09:43:33;;;;;;;3.75;1.88;;;35.00;33.10;;;;;;4997023;28;20025;-58
2021/06/02 09:46:09;;;;;;;4.75;1.92;;;35.70;33.90;;;;;;4987240;28;20149;-58
2021/06/02 09:48:57;;;;;;;7.22;2.08;;;35.40;33.40;;;;;;4993632;28;20030;-58
2021/06/02 09:51:41;;;;;;;2.35;1.52;;;35.80;32.60;;;;;;4993252;28;20038;-58
2021/06/02 09:54:14;;;;;;;6.28;2.22;;;36.00;33.00;;;;;;4988748;28;20052;-58
2021/06/02 09:56:46;;;;;;;5.72;2.03;;;36.40;32.60;;;;;;4998065;28;20472;-58
2021/06/02 09:59:20;;;;;;;2.45;1.63;;;36.20;33.40;;;;;;4999531;28;20038;-58
2021/06/02 10:01:57;;;;;;;2.92;1.60;;;36.00;33.90;;;;;;4999186;28;20034;-58
2021/06/02 10:04:42;;;;;;;4.00;1.80;;;35.90;34.50;;;;;;5001618;28;20029;-60
2021/06/02 10:07:19;;;;;;;9.77;1.65;;;35.10;32.60;;;;;;4993005;28;20042;-59
2021/06/02 10:09:45;;;;;;;4.53;2.17;;;34.70;32.70;;;;;;4993278;28;20096;-59
2021/06/02 10:12:12;;;;;;;3.95;1.70;;;33.60;34.60;;;;;;4992138;28;20038;-59
2021/06/02 10:14:39;;;;;;;5.35;1.83;;;33.40;36.50;;;;;;5005220;28;20069;-58
2021/06/02 10:17:27;;;;;;;2.60;1.63;;;32.70;35.80;;;;;;5001617;28;20046;-58
2021/06/02 10:19:57;;;;;;;4.57;1.85;;;32.30;36.60;;;;;;5000988;28;20038;-58
2021/06/02 10:22:28;;;;;;;6.50;1.80;;;32.40;36.50;;;;;;4994287;28;20057;-58
2021/06/02 10:25:00;;;;;;;4.70;1.70;;;32.10;35.40;;;;;;5001172;28;20018;-60
2021/06/02 10:27:29;;;;;;;5.47;2.23;;;32.10;36.20;;;;;;4985498;28;20137;-60
2021/06/02 10:29:55;;;;;;;2.05;1.85;;;31.50;35.50;;;;;;4994027;28;20026;-58
2021/06/02 10:32:27;;;;;;;2.78;2.00;;;31.60;37.80;;;;;;5002903;28;20034;-58
2021/06/02 10:34:56;;;;;;;6.82;2.28;;;31.50;39.10;;;;;;4990043;28;20042;-61
2021/06/02 10:37:23;;;;;;;10.60;2.95;;;31.50;38.00;;;;;;4999013;28;20038;-59
2021/06/02 10:40:05;;;;;;;5.20;2.08;;;31.50;38.70;;;;;;5003928;28;20026;-58
2021/06/02 10:42:38;;;;;;;9.75;2.40;;;31.10;39.40;;;;;;4997455;28;20042;-57
2021/06/02 10:45:28;;;;;;;3.03;2.17;;;30.80;38.80;;;;;;5000408;28;20083;-58
2021/06/02 10:48:04;;;;;;;6.80;2.03;;;30.60;39.40;;;;;;4992405;28;20037;-59
2021/06/02 10:50:42;;;;;;;4.22;1.90;;;30.50;39.60;;;;;;4999968;28;20023;-58
2021/06/02 10:53:25;;;;;;;4.72;2.03;;;30.40;39.30;;;;;;4993338;28;20029;-59
2021/06/02 10:55:53;;;;;;;3.42;1.88;;;30.40;39.20;;;;;;4999830;28;20084;-56
2021/06/02 10:58:27;;;;;;;4.82;2.00;;;30.50;39.30;;;;;;4993177;28;20022;-58
2021/06/02 11:01:17;;;;;;;7.75;2.40;;;30.50;38.90;;;;;;5004647;28;20080;-59
2021/06/02 11:03:45;;;;;;;7.35;2.05;;;30.10;39.10;;;;;;4996118;28;20034;-60
2021/06/02 11:06:13;;;;;;;3.05;2.13;;;30.10;37.40;;;;;;5001967;28;20026;-60
2021/06/02 11:08:51;;;;;;;2.30;1.90;;;30.10;39.50;;;;;;4993157;28;20026;-58
2021/06/02 11:11:19;;;;;;;6.40;2.30;;;30.00;40.30;;;;;;4991711;28;20041;-59
2021/06/02 11:16:42;;;;;;;2.42;1.55;;;29.80;38.10;;;;;;4991995;28;20382;-58
2021/06/02 11:19:19;;;;;;;3.28;1.90;;;29.70;38.50;;;;;;4989690;28;20022;-58
2021/06/02 11:21:54;;;;;;;3.00;1.90;;;29.60;35.90;;;;;;4991773;28;20449;-60
2021/06/02 11:24:36;;;;;;;4.95;2.60;;;29.30;34.90;;;;;;4993151;28;20019;-59
2021/06/02 11:27:14;;;;;;;3.83;2.00;;;28.90;35.10;;;;;;4992108;28;20026;-59
2021/06/02 11:29:52;;;;;;;4.18;1.92;;;28.70;37.70;;;;;;5006188;28;20049;-58
2021/06/02 11:32:18;;;;;;;2.40;1.88;;;28.60;38.30;;;;;;5000400;28;20131;-61
2021/06/02 11:34:51;;;;;;;4.93;2.10;;;28.80;38.80;;;;;;4976955;28;20031;-58
2021/06/02 11:37:20;;;;;;;;;;;28.90;38.20;;;;;;4990197;28;20034;-58
2021/06/02 11:39:53;;;;;;;5.57;2.10;;;28.70;37.30;;;;;;4993308;28;19905;-60
2021/06/02 11:42:31;;;;;;;2.80;2.20;;;28.60;36.60;;;;;;4993258;28;20042;-58
2021/06/02 11:45:03;;;;;;;3.38;1.70;;;28.50;38.00;;;;;;4998861;28;20479;-59
2021/06/02 11:47:29;;;;;;;5.00;2.30;;;28.70;39.30;;;;;;4994865;28;20041;-59
2021/06/02 11:50:06;;;;;;;2.90;2.40;;;28.60;38.90;;;;;;4988647;28;20109;-60
2021/06/02 11:52:34;;;;;;;3.30;2.20;;;28.70;39.80;;;;;;4990953;28;20034;-60
2021/06/02 11:55:07;;;;;;;4.07;2.17;;;28.70;40.80;;;;;;4992208;28;20031;-58
2021/06/02 11:57:36;;;;;;;7.28;2.22;;;28.80;40.90;;;;;;4990775;28;20026;-59
2021/06/02 12:00:04;;;;;;;3.28;1.80;;;28.80;40.60;;;;;;4986499;28;20870;-58
2021/06/02 12:02:33;;;;;;;8.35;2.05;;;28.80;41.00;;;;;;4986032;28;20475;-58
2021/06/02 12:05:22;;;;;;;4.38;2.65;;;28.60;40.60;;;;;;4984282;28;20061;-57
2021/06/02 12:07:54;;;;;;;7.63;2.80;;;28.70;42.00;;;;;;4994119;28;20488;-57
2021/06/02 12:10:33;;;;;;;6.18;2.28;;;28.60;40.10;;;;;;4999434;28;20038;-59
2021/06/02 12:13:04;;;;;;;3.75;2.17;;;28.70;41.00;;;;;;4996606;28;20093;-58
2021/06/02 12:16:07;;;;;;;5.45;2.90;;;28.50;41.70;;;;;;4998324;28;20022;-56
2021/06/02 12:18:37;;;;;;;2.63;1.90;;;28.50;41.10;;;;;;4990224;28;20046;-59
2021/06/02 12:21:09;;;;;;;4.38;2.28;;;28.00;39.90;;;;;;4997118;28;20285;-58
2021/06/02 12:23:44;;;;;;;6.28;2.10;;;27.90;43.40;;;;;;4988995;28;20038;-60
2021/06/02 12:26:21;;;;;;;3.60;2.28;;;28.10;41.50;;;;;;4996918;28;20092;-59
2021/06/02 12:28:50;;;;;;;4.43;2.72;;;28.10;41.60;;;;;;4997167;28;20096;-58
2021/06/02 12:31:32;;;;;;;4.10;1.92;;;28.00;41.30;;;;;;4994062;28;20546;-58
2021/06/02 12:34:01;;;;;;;4.72;2.83;;;28.10;41.20;;;;;;4989191;28;20054;-58
2021/06/02 12:36:31;;;;;;;2.92;2.13;;;28.20;40.00;;;;;;4953049;28;20054;-59
2021/06/02 12:39:02;;;;;;;3.55;1.95;;;28.20;40.90;;;;;;4978976;28;20551;-59
2021/06/02 12:41:28;;;;;;;3.85;2.63;;;28.20;39.70;;;;;;4978335;28;20047;-58
2021/06/02 12:43:54;;;;;;;6.00;2.30;;;28.20;41.20;;;;;;4976251;28;20029;-60
2021/06/02 12:46:19;;;;;;;4.13;2.45;;;28.30;42.00;;;;;;4979266;28;20038;-57
2021/06/02 12:48:56;;;;;;;5.93;2.00;;;28.20;40.80;;;;;;4972069;28;20401;-61
2021/06/02 12:51:27;;;;;;;3.33;1.95;;;28.10;40.80;;;;;;4975473;28;20034;-59
2021/06/02 12:53:53;;;;;;;3.55;1.85;;;28.20;41.30;;;;;;4987598;28;20030;-59
2021/06/02 12:56:20;;;;;;;2.63;1.90;;;28.10;41.60;;;;;;4986967;28;20030;-61
2021/06/02 12:58:55;;;;;;;4.88;1.75;;;28.10;42.50;;;;;;4982142;28;20117;-60
2021/06/02 13:01:26;;;;;;;4.63;1.92;;;28.00;40.50;;;;;;4983319;28;20128;-58
2021/06/02 13:03:54;;;;;;;3.38;2.15;;;27.90;41.50;;;;;;4995136;28;20041;-61
2021/06/02 13:06:29;;;;;;;4.35;2.30;;;27.70;39.60;;;;;;4975291;28;20359;-58
2021/06/02 13:08:56;;;;;;;1.77;1.67;;;27.60;41.80;;;;;;4977612;28;20026;-59
2021/06/02 13:11:33;;;;;;;3.63;1.70;;;27.60;42.20;;;;;;4979918;28;20034;-58
2021/06/02 13:14:02;;;;;;;3.95;2.00;;;27.70;41.10;;;;;;4979964;28;20030;-61
2021/06/02 13:16:29;;;;;;;2.67;1.42;;;27.70;40.60;;;;;;4978793;28;20614;-61
2021/06/02 13:19:10;;;;;;;2.38;1.80;;;27.80;39.50;;;;;;4994555;28;20026;-60
2021/06/02 13:21:54;;;;;;;7.95;1.95;;;27.80;40.40;;;;;;4977025;28;20062;-57
2021/06/02 13:24:25;;;;;;;6.35;1.65;;;27.80;40.90;;;;;;4979024;28;20098;-60
2021/06/02 13:27:02;;;;;;;6.53;1.70;;;27.90;40.30;;;;;;4974273;28;20154;-61
2021/06/02 13:29:31;;;;;;;2.55;1.50;;;28.00;39.90;;;;;;4974905;28;20034;-58
2021/06/02 13:31:58;;;;;;;2.20;1.63;;;28.10;39.60;;;;;;4986495;28;20034;-58
2021/06/02 13:34:31;;;;;;;2.85;1.92;;;28.00;38.90;;;;;;4985833;28;20054;-59
2021/06/02 13:37:15;;;;;;;;;;;27.90;38.00;;;;;;4978434;28;20125;-60
2021/06/02 13:39:42;;;;;;;1.77;1.48;;;27.80;39.30;;;;;;4997944;28;20268;-57
2021/06/02 13:42:10;;;;;;;3.88;1.92;;;27.60;38.00;;;;;;4991371;28;20649;-59
2021/06/02 13:44:38;;;;;;;3.75;1.88;;;27.60;38.70;;;;;;4995812;28;20087;-61